• Join FlightAware (Why Join?)
  • Login
  • US Flag 
10:01PM EDT


 

Airport Tracker/Info


-or-


 

Live Flight TrackerFlight Track Log ✈ UAL5868 ✈ 06-May-2013 ✈ KSBN - KORD

Flight Track Log - Related Links

Times and Time Zones

All times are in EDT time to prevent confusion due to time zone crossing. See the UAL5868 flight status page for this flight to view local times or setup timezone preferences in your user account.

Time Position Orientation Groundspeed Altitude Reporting Facility
EDT Latitude Longitude Course Direction KTS MPH feet Rate Location/Type
05:04PM 41.7806 -86.3186 312° West 256 295 6,300  Level Chicago Center
05:05PM 41.9017 -86.5376 308° West  Level FlightAware Approximate
05:06PM 41.9457 -86.6124 308° West  Level FlightAware Approximate
05:06PM 41.8817 -86.4861 309° West 294 338 10,000  Level Chicago Center
05:07PM 41.9896 -86.6872 308° West  Level FlightAware Approximate
05:08PM 42.0349 -86.7606 312° West  Level FlightAware Approximate
05:08PM 41.9552 -86.6205 306° West  Level FlightAware Approximate
05:09PM 42.0823 -86.8316 312° West  Level FlightAware Approximate
05:09PM 42.0858 -86.8244 306° West 363 418 9,900  Level Chicago Center
05:10PM 42.1339 -86.9047 309° West 299 344 8,400 -1,020 Descending Chicago Center
05:11PM 42.1594 -86.9944 291° West 278 320 7,900 -120 Descending Chicago Center
05:13PM 42.1551 -87.1408 274° West  Level FlightAware Approximate
05:13PM 42.1728 -87.2253 274° West 283 326 8,100  Level Chicago Center
05:14PM 42.1808 -87.3297 276° West 283 326 8,100 -120 Level Chicago Center
05:15PM 42.1872 -87.4333 275° West 282 325 7,900 -420 Descending Chicago Center
05:16PM 42.1939 -87.5353 275° West 278 320 7,300 -480 Descending Chicago Center
05:17PM 42.1675 -87.6469 252° West 276 318 7,000 -120 Descending Chicago Center
05:18PM 42.1167 -87.7167 226° Southwest 276 318 7,100  Climbing Chicago TRACON
05:20PM 42.0441 -87.7892 217° Southwest  Level FlightAware Approximate
05:21PM 42.0667 -88.0000 217° Southwest 253 291 7,000  Level Chicago TRACON
05:22PM 42.0500 -88.0833 255° West 236 272 5,000 -2,040 Descending Chicago TRACON
05:23PM 42.0000 -88.0833 180° South 215 247 3,000 -1,260 Descending Chicago TRACON
05:24PM 41.9833 -88.0333 114° Southeast 158 182 2,500 -540 Descending Chicago TRACON
05:27PM 41.9667 -87.9000 217° Southwest  Level FlightAware Approximate
05:27PM 41.9698 -87.9249 99° East  Level FlightAware Approximate
05:34PM 41.9667 -87.9000 121° Southeast  Level FlightAware Approximate
05:35PM 41.9817 -87.9067 121° Southeast  Level Estimated
05:36PM 41.9817 -87.9067 121° Southeast  Level Estimated
05:37PM 41.9817 -87.9067 121° Southeast  Level Estimated
05:38PM 41.9817 -87.9067 121° Southeast  Level Estimated
05:39PM 41.9817 -87.9067 121° Southeast  Level Estimated
05:40PM 41.9817 -87.9067 121° Southeast  Level Estimated
05:41PM 41.9817 -87.9067 121° Southeast  Level Estimated